createdAt,value
2023-05-11T00:02:15.370Z,12.60
2023-05-11T00:05:02.890Z,12.50
2023-05-11T00:07:50.080Z,12.50
2023-05-11T00:10:37.770Z,12.50
2023-05-11T00:13:25.352Z,12.50
2023-05-11T00:16:12.550Z,12.50
2023-05-11T00:19:00.180Z,12.50
2023-05-11T00:21:50.738Z,12.60
2023-05-11T00:24:39.249Z,12.70
2023-05-11T00:27:26.719Z,12.70
2023-05-11T00:30:17.795Z,12.60
2023-05-11T00:33:05.619Z,12.50
2023-05-11T00:35:53.178Z,12.50
2023-05-11T00:38:41.178Z,12.60
2023-05-11T00:41:28.463Z,12.50
2023-05-11T00:44:16.074Z,12.40
2023-05-11T00:47:03.792Z,12.40
2023-05-11T00:49:54.023Z,12.40
2023-05-11T00:52:42.902Z,12.40
2023-05-11T00:55:31.504Z,12.50
2023-05-11T00:58:22.207Z,12.50
2023-05-11T01:01:10.630Z,12.40
2023-05-11T01:03:57.977Z,12.40
2023-05-11T01:07:00.864Z,12.40
2023-05-11T01:10:11.871Z,12.40
2023-05-11T01:13:29.689Z,12.30
2023-05-11T01:16:20.095Z,12.20
2023-05-11T01:19:10.556Z,12.10
2023-05-11T01:21:59.814Z,12.10
2023-05-11T01:25:12.079Z,12.10
2023-05-11T01:28:14.972Z,12.10
2023-05-11T01:31:10.624Z,12.10
2023-05-11T01:34:06.997Z,12.10
2023-05-11T01:36:58.041Z,12.00
2023-05-11T01:40:06.378Z,12.00
2023-05-11T01:42:56.703Z,12.00
2023-05-11T01:45:48.547Z,12.00
2023-05-11T01:48:39.027Z,12.00
2023-05-11T01:51:28.894Z,11.90
2023-05-11T01:54:20.016Z,11.90
2023-05-11T01:57:11.836Z,12.00
2023-05-11T02:00:02.203Z,12.00
2023-05-11T02:02:50.982Z,12.10
2023-05-11T02:05:41.212Z,12.00
2023-05-11T02:08:31.467Z,12.00
2023-05-11T02:11:21.877Z,11.90
2023-05-11T02:14:11.031Z,11.90
2023-05-11T02:16:58.936Z,11.90
2023-05-11T02:19:47.914Z,11.90
2023-05-11T02:22:36.808Z,12.00
2023-05-11T02:25:24.996Z,12.00
2023-05-11T02:28:12.213Z,11.90
2023-05-11T02:31:03.382Z,11.90
2023-05-11T02:33:52.837Z,11.90
2023-05-11T02:36:40.681Z,11.90
2023-05-11T02:39:31.568Z,11.90
2023-05-11T02:42:23.413Z,11.90
2023-05-11T02:45:12.785Z,11.90
2023-05-11T02:48:01.712Z,11.90
2023-05-11T02:50:51.510Z,11.90
2023-05-11T02:53:42.164Z,11.90
2023-05-11T02:56:30.584Z,11.90
2023-05-11T02:59:18.594Z,11.80
2023-05-11T03:02:06.951Z,11.90
2023-05-11T03:04:54.557Z,12.00
2023-05-11T03:07:42.845Z,12.00
2023-05-11T03:10:31.479Z,12.00
2023-05-11T03:13:21.802Z,12.10
2023-05-11T03:16:10.423Z,12.10
2023-05-11T03:18:58.723Z,12.10
2023-05-11T03:21:49.094Z,12.10
2023-05-11T03:24:36.467Z,12.10
2023-05-11T03:27:25.604Z,12.10
2023-05-11T03:30:15.219Z,12.10
2023-05-11T03:33:03.107Z,12.10
2023-05-11T03:35:52.416Z,12.20
2023-05-11T03:38:40.767Z,12.10
2023-05-11T03:41:31.294Z,12.10
2023-05-11T03:44:23.269Z,12.00
2023-05-11T03:47:13.402Z,12.10
2023-05-11T03:50:02.188Z,12.10
2023-05-11T03:52:50.795Z,12.00
2023-05-11T03:55:38.861Z,12.10
2023-05-11T03:58:26.150Z,12.00
2023-05-11T04:01:14.606Z,12.00
2023-05-11T04:04:02.493Z,12.00
2023-05-11T04:06:50.044Z,12.00
2023-05-11T04:09:37.410Z,11.90
2023-05-11T04:12:25.020Z,12.10
2023-05-11T04:15:12.840Z,12.10
2023-05-11T04:18:00.250Z,12.10
2023-05-11T04:20:47.995Z,12.10
2023-05-11T04:23:35.548Z,12.00
2023-05-11T04:26:22.721Z,12.00
2023-05-11T04:29:12.124Z,12.20
2023-05-11T04:31:59.916Z,12.20
2023-05-11T04:34:50.222Z,12.30
2023-05-11T04:37:37.458Z,12.30
2023-05-11T04:40:24.694Z,12.30
2023-05-11T04:43:12.081Z,12.30
2023-05-11T04:45:59.690Z,12.30
2023-05-11T04:48:47.038Z,12.30
2023-05-11T04:51:34.606Z,12.30
2023-05-11T04:54:21.907Z,12.40
2023-05-11T04:57:09.219Z,12.40
2023-05-11T04:59:56.786Z,12.50
2023-05-11T05:02:44.349Z,12.70
2023-05-11T05:05:31.670Z,12.80
2023-05-11T05:08:18.982Z,12.90
2023-05-11T05:11:06.341Z,13.10
2023-05-11T05:13:55.033Z,13.20
2023-05-11T05:16:42.617Z,13.40
2023-05-11T05:19:29.897Z,13.40
2023-05-11T05:22:17.202Z,13.50
2023-05-11T05:25:04.578Z,13.70
2023-05-11T05:27:51.849Z,13.90
2023-05-11T05:30:39.514Z,14.00
2023-05-11T05:33:27.102Z,14.10
2023-05-11T05:36:14.556Z,14.20
2023-05-11T05:39:03.786Z,14.30
2023-05-11T05:41:51.353Z,14.50
2023-05-11T05:44:39.592Z,14.70
2023-05-11T05:47:26.796Z,14.80
2023-05-11T05:50:14.184Z,14.90
2023-05-11T05:53:01.507Z,15.00
2023-05-11T05:55:49.147Z,15.00
2023-05-11T05:58:36.417Z,15.10
2023-05-11T06:01:23.818Z,15.20
2023-05-11T06:04:11.575Z,15.20
2023-05-11T06:06:59.837Z,15.30
2023-05-11T06:09:47.458Z,15.30
2023-05-11T06:12:34.964Z,15.20
2023-05-11T06:15:22.912Z,15.30
2023-05-11T06:18:10.551Z,15.20
2023-05-11T06:20:58.234Z,15.30
2023-05-11T06:23:45.457Z,15.50
2023-05-11T06:26:32.922Z,15.60
2023-05-11T06:29:22.114Z,15.80
2023-05-11T06:32:09.647Z,15.90
2023-05-11T06:34:56.836Z,15.90
2023-05-11T06:37:44.274Z,16.00
2023-05-11T06:40:31.620Z,16.10
2023-05-11T06:43:18.825Z,16.10
2023-05-11T06:46:06.787Z,16.20
2023-05-11T06:48:53.904Z,16.40
2023-05-11T06:51:42.100Z,16.50
2023-05-11T06:54:29.179Z,16.60
2023-05-11T06:57:16.914Z,16.80
2023-05-11T07:00:04.759Z,16.90
2023-05-11T07:02:52.830Z,17.00
2023-05-11T07:05:40.285Z,17.00
2023-05-11T07:08:27.969Z,17.10
2023-05-11T07:11:15.522Z,17.20
2023-05-11T07:14:03.202Z,17.30
2023-05-11T07:16:52.118Z,17.50
2023-05-11T07:19:39.594Z,17.70
2023-05-11T07:22:26.992Z,17.50
2023-05-11T07:25:14.346Z,17.40
2023-05-11T07:28:02.082Z,17.60
2023-05-11T07:30:49.460Z,17.90
2023-05-11T07:33:39.500Z,18.20
2023-05-11T07:36:28.059Z,18.40
2023-05-11T07:39:17.003Z,18.50
2023-05-11T07:42:04.641Z,18.60
2023-05-11T07:44:52.078Z,18.80
2023-05-11T07:47:39.577Z,18.70
2023-05-11T07:50:27.438Z,18.80
2023-05-11T07:53:15.400Z,18.90
2023-05-11T07:56:03.834Z,18.90
2023-05-11T07:58:51.032Z,19.00
2023-05-11T08:01:38.642Z,19.10
2023-05-11T08:04:27.520Z,19.00
2023-05-11T08:07:14.828Z,19.00
2023-05-11T08:10:01.981Z,19.10
2023-05-11T08:12:49.453Z,19.20
2023-05-11T08:15:36.839Z,19.10
2023-05-11T08:18:24.191Z,19.00
2023-05-11T08:21:11.379Z,19.10
2023-05-11T08:23:59.195Z,18.90
2023-05-11T08:26:47.209Z,18.80
2023-05-11T08:29:34.389Z,19.00
2023-05-11T08:32:22.151Z,19.10
2023-05-11T08:35:09.991Z,19.00
2023-05-11T08:37:57.609Z,19.10
2023-05-11T08:40:46.806Z,19.40
2023-05-11T08:43:36.606Z,19.50
2023-05-11T08:46:27.570Z,19.40
2023-05-11T08:49:15.548Z,19.10
2023-05-11T08:52:07.683Z,18.60
2023-05-11T08:54:54.582Z,18.40
2023-05-11T08:57:44.185Z,18.50
2023-05-11T09:00:31.843Z,18.40
2023-05-11T09:03:20.035Z,18.50
2023-05-11T09:06:09.250Z,18.50
2023-05-11T09:08:56.869Z,18.30
2023-05-11T09:11:45.801Z,18.60
2023-05-11T09:14:33.217Z,19.00
2023-05-11T09:17:20.869Z,19.10
2023-05-11T09:20:09.349Z,19.20
2023-05-11T09:22:57.021Z,19.40
2023-05-11T09:25:44.484Z,19.50
2023-05-11T09:28:36.090Z,19.40
2023-05-11T09:31:37.281Z,19.20
2023-05-11T09:34:24.907Z,19.40
2023-05-11T09:37:17.886Z,19.50
2023-05-11T09:40:26.316Z,19.30
2023-05-11T09:42:55.822Z,19.20
2023-05-11T09:45:45.368Z,19.50
2023-05-11T09:48:35.069Z,19.90
2023-05-11T09:51:25.526Z,20.30
2023-05-11T09:54:21.578Z,20.30
2023-05-11T09:57:10.590Z,20.60
2023-05-11T10:00:00.129Z,20.30
2023-05-11T10:02:49.149Z,20.00
2023-05-11T10:05:37.693Z,19.70
2023-05-11T10:08:34.491Z,19.40
2023-05-11T10:11:26.248Z,19.30
2023-05-11T10:14:15.236Z,19.50
2023-05-11T10:17:03.869Z,19.30
2023-05-11T10:19:51.837Z,19.30
2023-05-11T10:22:39.453Z,19.30
2023-05-11T10:25:27.503Z,19.40
2023-05-11T10:28:15.492Z,19.70
2023-05-11T10:31:05.083Z,19.90
2023-05-11T10:33:53.383Z,20.00
2023-05-11T10:36:40.648Z,20.10
2023-05-11T10:39:30.910Z,19.70
2023-05-11T10:42:56.436Z,19.70
2023-05-11T10:46:06.425Z,19.40
2023-05-11T10:49:08.412Z,19.30
2023-05-11T10:52:01.878Z,19.30
2023-05-11T10:54:58.320Z,19.40
2023-05-11T10:58:06.277Z,19.60
2023-05-11T11:00:59.700Z,19.60
2023-05-11T11:03:59.225Z,19.20
2023-05-11T11:06:46.777Z,19.30
2023-05-11T11:10:01.019Z,19.40
2023-05-11T11:13:11.172Z,19.30
2023-05-11T11:16:04.951Z,18.90
2023-05-11T11:18:52.580Z,19.00
2023-05-11T11:21:43.902Z,19.20
2023-05-11T11:24:44.362Z,19.10
2023-05-11T11:27:43.362Z,18.70
2023-05-11T11:30:31.417Z,18.40
2023-05-11T11:33:25.026Z,18.30
2023-05-11T11:36:12.375Z,18.20
2023-05-11T11:39:01.296Z,17.90
2023-05-11T11:42:02.523Z,17.90
2023-05-11T11:44:49.598Z,17.90
2023-05-11T11:47:38.024Z,17.80
2023-05-11T11:50:28.577Z,17.60
2023-05-11T11:53:35.954Z,17.50
2023-05-11T11:56:26.435Z,17.30
2023-05-11T11:59:15.202Z,17.00
2023-05-11T12:02:03.086Z,16.60
2023-05-11T12:04:53.544Z,16.40
2023-05-11T12:07:43.437Z,16.40
2023-05-11T12:10:30.507Z,16.40
2023-05-11T12:13:20.400Z,16.50
2023-05-11T12:16:15.848Z,16.60
2023-05-11T12:19:04.086Z,16.60
2023-05-11T12:21:51.415Z,16.80
2023-05-11T12:24:39.518Z,16.80
2023-05-11T12:27:26.738Z,16.90
2023-05-11T12:30:25.539Z,17.10
2023-05-11T12:33:15.852Z,17.00
2023-05-11T12:36:03.388Z,17.10
2023-05-11T12:38:50.989Z,17.20
2023-05-11T12:41:57.705Z,17.20
2023-05-11T12:44:44.993Z,17.30
2023-05-11T12:47:32.924Z,17.40
2023-05-11T12:50:21.376Z,17.50
2023-05-11T12:53:21.262Z,17.50
2023-05-11T12:56:08.965Z,17.80
2023-05-11T12:58:56.445Z,17.90
2023-05-11T13:01:44.048Z,17.90
2023-05-11T13:04:32.592Z,18.10
2023-05-11T13:07:28.140Z,18.20
2023-05-11T13:10:15.691Z,18.30
2023-05-11T13:13:03.685Z,18.40
2023-05-11T13:15:52.409Z,18.50
2023-05-11T13:18:40.237Z,18.50
2023-05-11T13:21:29.194Z,18.50
2023-05-11T13:24:23.576Z,18.60
2023-05-11T13:27:11.157Z,18.60
2023-05-11T13:29:58.770Z,18.60
2023-05-11T13:32:46.185Z,18.50
2023-05-11T13:35:33.189Z,18.40
2023-05-11T13:38:21.003Z,18.40
2023-05-11T13:41:08.580Z,18.40
2023-05-11T13:43:55.767Z,18.40
2023-05-11T13:46:43.394Z,18.30
2023-05-11T13:49:31.262Z,18.30
2023-05-11T13:52:18.452Z,18.30
2023-05-11T13:55:06.684Z,18.30
2023-05-11T13:57:53.929Z,18.40
2023-05-11T14:00:41.102Z,18.40
2023-05-11T14:03:29.814Z,18.50
2023-05-11T14:06:17.150Z,18.50
2023-05-11T14:09:04.852Z,18.50
2023-05-11T14:11:52.050Z,18.60
2023-05-11T14:14:39.542Z,18.70
2023-05-11T14:17:27.131Z,18.70
2023-05-11T14:20:14.793Z,18.70
2023-05-11T14:23:02.178Z,18.70
2023-05-11T14:25:49.594Z,18.60
2023-05-11T14:28:37.046Z,18.40
2023-05-11T14:31:24.497Z,18.50
2023-05-11T14:34:11.905Z,18.50
2023-05-11T14:37:01.136Z,18.50
2023-05-11T14:39:48.237Z,18.50
2023-05-11T14:42:35.442Z,18.30
2023-05-11T14:45:23.093Z,18.30
2023-05-11T14:48:10.495Z,18.40
2023-05-11T14:50:58.294Z,18.40
2023-05-11T14:53:45.472Z,18.50
2023-05-11T14:56:32.809Z,18.70
2023-05-11T14:59:20.949Z,18.80
2023-05-11T15:02:08.521Z,18.60
2023-05-11T15:04:56.120Z,18.70
2023-05-11T15:07:43.033Z,18.50
2023-05-11T15:10:30.723Z,18.50
2023-05-11T15:13:19.328Z,18.50
2023-05-11T15:16:07.141Z,18.50
2023-05-11T15:18:54.425Z,18.40
2023-05-11T15:21:41.540Z,18.40
2023-05-11T15:24:28.811Z,18.50
2023-05-11T15:27:16.609Z,18.50
2023-05-11T15:30:04.018Z,18.50
2023-05-11T15:32:51.850Z,18.40
2023-05-11T15:35:39.512Z,18.30
2023-05-11T15:38:26.796Z,18.30
2023-05-11T15:41:14.543Z,18.30
2023-05-11T15:44:01.784Z,18.30
2023-05-11T15:46:49.226Z,18.40
2023-05-11T15:49:36.571Z,18.30
2023-05-11T15:52:24.108Z,18.20
2023-05-11T15:55:11.642Z,18.00
2023-05-11T15:57:58.820Z,18.00
2023-05-11T16:00:46.659Z,18.00
2023-05-11T16:03:34.286Z,18.10
2023-05-11T16:06:21.272Z,18.10
2023-05-11T16:09:10.196Z,18.00
2023-05-11T16:11:57.531Z,18.00
2023-05-11T16:14:44.620Z,17.90
2023-05-11T16:17:32.175Z,17.80
2023-05-11T16:20:19.966Z,17.80
2023-05-11T16:23:07.349Z,17.80
2023-05-11T16:25:56.563Z,17.90
2023-05-11T16:28:43.756Z,18.00
2023-05-11T16:31:31.364Z,17.90
2023-05-11T16:34:19.088Z,17.90
2023-05-11T16:37:06.244Z,17.80
2023-05-11T16:39:53.793Z,17.90
2023-05-11T16:42:41.447Z,17.90
2023-05-11T16:45:28.654Z,17.90
2023-05-11T16:48:15.961Z,17.90
2023-05-11T16:51:03.418Z,17.90
2023-05-11T16:53:51.228Z,17.90
2023-05-11T16:56:38.586Z,17.90
2023-05-11T16:59:26.214Z,17.80
2023-05-11T17:02:13.751Z,17.80
2023-05-11T17:05:01.447Z,17.80
2023-05-11T17:07:48.776Z,17.80
2023-05-11T17:10:36.056Z,17.70
2023-05-11T17:13:23.638Z,17.70
2023-05-11T17:16:11.305Z,17.70
2023-05-11T17:18:59.783Z,17.80
2023-05-11T17:21:47.279Z,17.70
2023-05-11T17:24:34.868Z,17.70
2023-05-11T17:27:22.715Z,17.70
2023-05-11T17:30:10.357Z,17.70
2023-05-11T17:32:58.049Z,17.60
2023-05-11T17:35:45.559Z,17.60
2023-05-11T17:38:33.156Z,17.60
2023-05-11T17:41:20.584Z,17.50
2023-05-11T17:44:08.153Z,17.50
2023-05-11T17:46:55.390Z,17.40
2023-05-11T17:49:42.573Z,17.40
2023-05-11T17:52:29.997Z,17.30
2023-05-11T17:55:17.812Z,17.30
2023-05-11T17:58:05.191Z,17.10
2023-05-11T18:00:52.475Z,17.10
2023-05-11T18:03:40.887Z,17.10
2023-05-11T18:06:28.606Z,16.90
2023-05-11T18:09:15.731Z,17.00
2023-05-11T18:12:04.489Z,17.00
2023-05-11T18:14:52.174Z,16.90
2023-05-11T18:17:39.847Z,16.90
2023-05-11T18:20:27.366Z,16.90
2023-05-11T18:23:15.260Z,16.90
2023-05-11T18:26:03.362Z,16.70
2023-05-11T18:28:50.623Z,16.70
2023-05-11T18:31:38.148Z,16.70
2023-05-11T18:34:26.261Z,16.60
2023-05-11T18:37:13.426Z,16.60
2023-05-11T18:40:02.657Z,16.60
2023-05-11T18:42:50.227Z,16.60
2023-05-11T18:45:38.169Z,16.50
2023-05-11T18:48:25.413Z,16.50
2023-05-11T18:51:13.147Z,16.40
2023-05-11T18:54:01.051Z,16.40
2023-05-11T18:56:48.614Z,16.30
2023-05-11T18:59:36.136Z,16.20
2023-05-11T19:02:23.765Z,16.20
2023-05-11T19:05:11.356Z,16.20
2023-05-11T19:07:58.610Z,16.10
2023-05-11T19:10:47.778Z,16.10
2023-05-11T19:13:35.374Z,16.00
2023-05-11T19:16:22.738Z,16.00
2023-05-11T19:19:10.053Z,16.00
2023-05-11T19:21:59.039Z,15.90
2023-05-11T19:24:46.267Z,15.90
2023-05-11T19:27:33.891Z,15.80
2023-05-11T19:30:21.505Z,15.80
2023-05-11T19:33:08.902Z,15.70
2023-05-11T19:35:56.197Z,15.70
2023-05-11T19:38:43.898Z,15.80
2023-05-11T19:41:32.817Z,15.80
2023-05-11T19:44:20.073Z,15.80
2023-05-11T19:47:07.525Z,15.60
2023-05-11T19:49:54.804Z,15.60
2023-05-11T19:52:42.257Z,15.60
2023-05-11T19:55:29.574Z,15.60
2023-05-11T19:58:17.366Z,15.70
2023-05-11T20:01:05.552Z,15.60
2023-05-11T20:03:53.255Z,15.60
2023-05-11T20:06:40.700Z,15.60
2023-05-11T20:09:28.367Z,15.60
2023-05-11T20:12:16.104Z,15.70
2023-05-11T20:15:04.886Z,15.70
2023-05-11T20:17:52.363Z,15.70
2023-05-11T20:20:39.794Z,15.70
2023-05-11T20:23:27.360Z,15.70
2023-05-11T20:26:15.213Z,15.70
2023-05-11T20:29:02.442Z,15.80
2023-05-11T20:31:50.013Z,15.70
2023-05-11T20:34:37.559Z,15.70
2023-05-11T20:37:24.971Z,15.70
2023-05-11T20:40:13.170Z,15.70
2023-05-11T20:43:00.515Z,15.70
2023-05-11T20:45:47.710Z,15.70
2023-05-11T20:48:40.530Z,15.70
2023-05-11T20:51:24.154Z,15.70
2023-05-11T20:54:12.544Z,15.70
2023-05-11T20:57:00.048Z,15.70
2023-05-11T21:02:36.713Z,15.70
2023-05-11T21:05:25.597Z,15.70
2023-05-11T21:08:12.885Z,15.70
2023-05-11T21:11:00.250Z,15.60
2023-05-11T21:13:48.787Z,15.70
2023-05-11T21:16:36.024Z,15.70
2023-05-11T21:19:23.629Z,15.60
2023-05-11T21:22:11.062Z,15.60
2023-05-11T21:24:58.383Z,15.60
2023-05-11T21:27:45.625Z,15.60
2023-05-11T21:30:33.025Z,15.50
2023-05-11T21:33:20.578Z,15.50
2023-05-11T21:36:08.397Z,15.50
2023-05-11T21:38:55.652Z,15.50
2023-05-11T21:41:42.900Z,15.40
2023-05-11T21:44:30.505Z,15.40
2023-05-11T21:47:18.048Z,15.40
2023-05-11T21:50:06.052Z,15.40
2023-05-11T21:52:53.259Z,15.40
2023-05-11T21:55:40.588Z,15.50
2023-05-11T21:58:28.004Z,15.50
2023-05-11T22:01:15.630Z,15.50
2023-05-11T22:04:03.049Z,15.50
2023-05-11T22:06:50.596Z,15.50
2023-05-11T22:09:38.268Z,15.50
2023-05-11T22:12:25.910Z,15.40
2023-05-11T22:15:13.316Z,15.30
2023-05-11T22:18:01.001Z,15.30
2023-05-11T22:20:48.290Z,15.30
2023-05-11T22:23:36.518Z,15.30
2023-05-11T22:26:23.922Z,15.30
2023-05-11T22:29:11.434Z,15.40
2023-05-11T22:31:58.898Z,15.40
2023-05-11T22:34:46.717Z,15.40
2023-05-11T22:37:34.385Z,15.40
2023-05-11T22:40:21.799Z,15.30
2023-05-11T22:43:09.335Z,15.40
2023-05-11T22:45:56.676Z,15.40
2023-05-11T22:48:43.732Z,15.50
2023-05-11T22:51:31.454Z,15.50
2023-05-11T22:54:19.338Z,15.50
2023-05-11T22:57:06.805Z,15.50
2023-05-11T22:59:54.242Z,15.40
2023-05-11T23:02:41.830Z,15.40
2023-05-11T23:05:29.375Z,15.30
2023-05-11T23:08:16.718Z,15.30
2023-05-11T23:11:04.376Z,15.40
2023-05-11T23:13:51.974Z,15.40
2023-05-11T23:16:39.497Z,15.30
2023-05-11T23:19:26.937Z,15.40
2023-05-11T23:22:14.359Z,15.40
2023-05-11T23:25:02.160Z,15.30
2023-05-11T23:27:50.101Z,15.20
2023-05-11T23:30:38.097Z,15.20
2023-05-11T23:33:25.284Z,15.20
2023-05-11T23:36:13.050Z,15.20
2023-05-11T23:39:00.620Z,15.30
2023-05-11T23:41:48.149Z,15.30
2023-05-11T23:44:36.046Z,15.30
2023-05-11T23:47:23.486Z,15.30
2023-05-11T23:50:11.316Z,15.20
2023-05-11T23:52:58.466Z,15.30
2023-05-11T23:55:48.194Z,15.20
2023-05-11T23:58:35.478Z,15.20
